createdAt,value
2018-09-26T00:02:16.505Z,1.70
2018-09-26T00:04:48.992Z,1.60
2018-09-26T00:07:17.620Z,1.73
2018-09-26T00:09:46.214Z,1.90
2018-09-26T00:12:14.873Z,1.50
2018-09-26T00:14:43.481Z,1.50
2018-09-26T00:17:12.154Z,1.80
2018-09-26T00:19:40.801Z,1.37
2018-09-26T00:22:09.415Z,1.43
2018-09-26T00:24:38.047Z,1.27
2018-09-26T00:27:06.655Z,1.43
2018-09-26T00:29:35.269Z,1.50
2018-09-26T00:32:04.168Z,1.40
2018-09-26T00:34:32.787Z,1.60
2018-09-26T00:37:01.463Z,1.40
2018-09-26T00:39:30.196Z,1.67
2018-09-26T00:41:58.926Z,1.70
2018-09-26T00:44:28.108Z,1.30
2018-09-26T00:46:56.742Z,1.40
2018-09-26T00:49:25.424Z,1.33
2018-09-26T00:51:54.097Z,1.77
2018-09-26T00:54:22.739Z,1.87
2018-09-26T00:56:51.330Z,1.43
2018-09-26T00:59:19.969Z,1.30
2018-09-26T01:01:48.605Z,2.03
2018-09-26T01:04:17.329Z,1.20
2018-09-26T01:06:45.998Z,1.60
2018-09-26T01:09:14.961Z,1.20
2018-09-26T01:11:43.631Z,1.73
2018-09-26T01:14:12.309Z,1.47
2018-09-26T01:16:40.958Z,1.23
2018-09-26T01:19:09.608Z,1.50
2018-09-26T01:21:38.337Z,1.50
2018-09-26T01:24:06.982Z,1.30
2018-09-26T01:26:35.588Z,1.23
2018-09-26T01:29:04.360Z,2.17
2018-09-26T01:31:33.032Z,1.67
2018-09-26T01:34:01.728Z,2.20
2018-09-26T01:36:30.381Z,1.60
2018-09-26T01:38:59.061Z,1.40
2018-09-26T01:41:27.735Z,1.30
2018-09-26T01:43:56.391Z,1.73
2018-09-26T01:46:25.006Z,1.70
2018-09-26T01:48:53.635Z,1.50
2018-09-26T01:51:22.277Z,3.07
2018-09-26T01:53:51.020Z,1.90
2018-09-26T01:56:19.688Z,2.57
2018-09-26T01:58:48.311Z,1.60
2018-09-26T02:01:16.951Z,1.93
2018-09-26T02:03:45.629Z,3.37
2018-09-26T02:06:14.243Z,1.40
2018-09-26T02:08:42.993Z,3.47
2018-09-26T02:11:11.618Z,2.13
2018-09-26T02:13:40.280Z,1.90
2018-09-26T02:16:08.947Z,1.77
2018-09-26T02:18:37.620Z,1.90
2018-09-26T02:21:06.303Z,2.93
2018-09-26T02:23:34.958Z,2.00
2018-09-26T02:26:04.372Z,2.60
2018-09-26T02:28:32.992Z,2.03
2018-09-26T02:31:01.660Z,3.00
2018-09-26T02:33:30.241Z,2.10
2018-09-26T02:35:58.898Z,3.10
2018-09-26T02:38:27.564Z,1.97
2018-09-26T02:40:56.183Z,3.17
2018-09-26T02:43:24.795Z,3.60
2018-09-26T02:45:53.487Z,2.10
2018-09-26T02:48:27.475Z,1.90
2018-09-26T02:50:56.114Z,3.60
2018-09-26T02:53:24.800Z,2.90
2018-09-26T02:55:53.479Z,2.33
2018-09-26T02:58:22.026Z,2.70
2018-09-26T03:00:50.695Z,2.93
2018-09-26T03:03:19.301Z,2.23
2018-09-26T03:05:47.907Z,2.87
2018-09-26T03:08:16.527Z,2.80
2018-09-26T03:10:47.237Z,2.90
2018-09-26T03:13:15.828Z,2.83
2018-09-26T03:15:44.459Z,3.03
2018-09-26T03:18:13.124Z,2.80
2018-09-26T03:20:41.852Z,4.57
2018-09-26T03:23:10.475Z,2.83
2018-09-26T03:25:39.145Z,4.97
2018-09-26T03:28:07.775Z,3.10
2018-09-26T03:30:36.576Z,2.60
2018-09-26T03:33:05.292Z,5.83
2018-09-26T03:35:33.901Z,5.97
2018-09-26T03:38:02.546Z,3.00
2018-09-26T03:40:31.197Z,5.73
2018-09-26T03:42:59.867Z,4.63
2018-09-26T03:45:28.601Z,2.90
2018-09-26T03:47:57.232Z,3.40
2018-09-26T03:50:25.876Z,3.40
2018-09-26T03:52:54.522Z,2.90
2018-09-26T03:55:23.167Z,3.43
2018-09-26T03:57:51.959Z,3.67
2018-09-26T04:00:20.586Z,5.60
2018-09-26T04:02:49.221Z,3.77
2018-09-26T04:05:17.846Z,3.60
2018-09-26T04:07:46.479Z,5.27
2018-09-26T04:10:15.120Z,4.33
2018-09-26T04:12:43.836Z,3.17
2018-09-26T04:15:12.468Z,3.40
2018-09-26T04:17:41.124Z,4.37
2018-09-26T04:20:09.771Z,3.57
2018-09-26T04:22:38.345Z,4.33
2018-09-26T04:25:06.982Z,3.30
2018-09-26T04:27:35.800Z,3.10
2018-09-26T04:30:04.616Z,3.23
2018-09-26T04:32:33.336Z,3.17
2018-09-26T04:35:01.840Z,3.70
2018-09-26T04:37:30.493Z,3.40
2018-09-26T04:39:59.261Z,3.53
2018-09-26T04:42:27.883Z,3.30
2018-09-26T04:44:56.519Z,3.47
2018-09-26T04:47:25.124Z,4.40
2018-09-26T04:49:53.763Z,3.00
2018-09-26T04:52:22.427Z,3.17
2018-09-26T04:54:51.047Z,4.03
2018-09-26T04:57:19.740Z,4.67
2018-09-26T04:59:48.379Z,4.07
2018-09-26T05:02:17.016Z,3.67
2018-09-26T05:04:45.634Z,3.77
2018-09-26T05:07:14.306Z,3.60
2018-09-26T05:09:42.943Z,3.00
2018-09-26T05:12:11.651Z,3.20
2018-09-26T05:14:40.270Z,3.87
2018-09-26T05:17:08.875Z,3.47
2018-09-26T05:19:37.495Z,3.30
2018-09-26T05:22:06.127Z,3.13
2018-09-26T05:24:34.719Z,2.97
2018-09-26T05:27:03.456Z,2.93
2018-09-26T05:29:32.037Z,3.37
2018-09-26T05:32:00.650Z,3.43
2018-09-26T05:34:29.611Z,3.37
2018-09-26T05:36:58.228Z,2.80
2018-09-26T05:39:26.877Z,3.17
2018-09-26T05:41:55.525Z,4.07
2018-09-26T05:44:24.164Z,2.80
2018-09-26T05:46:52.846Z,3.30
2018-09-26T05:49:21.528Z,2.90
2018-09-26T05:51:50.114Z,4.23
2018-09-26T05:54:19.062Z,3.37
2018-09-26T05:56:48.068Z,3.07
2018-09-26T05:59:16.687Z,2.53
2018-09-26T06:01:45.300Z,2.87
2018-09-26T06:04:13.902Z,3.03
2018-09-26T06:06:42.468Z,3.10
2018-09-26T06:09:13.556Z,2.97
2018-09-26T06:11:42.849Z,2.87
2018-09-26T06:14:12.381Z,2.53
2018-09-26T06:16:41.114Z,3.60
2018-09-26T06:19:10.796Z,2.50
2018-09-26T06:21:39.700Z,3.13
2018-09-26T06:24:08.820Z,2.80
2018-09-26T06:26:37.774Z,4.00
2018-09-26T06:29:06.775Z,3.03
2018-09-26T06:31:35.438Z,2.93
2018-09-26T06:34:04.723Z,2.50
2018-09-26T06:36:33.435Z,2.87
2018-09-26T06:39:02.507Z,3.07
2018-09-26T06:41:31.374Z,2.90
2018-09-26T06:44:00.146Z,2.77
2018-09-26T06:46:28.903Z,2.80
2018-09-26T06:48:57.603Z,3.10
2018-09-26T06:51:26.383Z,3.23
2018-09-26T06:53:55.167Z,2.70
2018-09-26T06:56:23.945Z,2.67
2018-09-26T06:58:52.580Z,2.57
2018-09-26T07:01:21.344Z,2.80
2018-09-26T07:03:50.067Z,2.87
2018-09-26T07:06:18.939Z,3.27
2018-09-26T07:08:48.016Z,3.20
2018-09-26T07:11:16.684Z,3.93
2018-09-26T07:13:45.570Z,3.00
2018-09-26T07:16:14.553Z,3.40
2018-09-26T07:18:43.270Z,2.77
2018-09-26T07:21:12.384Z,3.43
2018-09-26T07:23:41.196Z,3.07
2018-09-26T07:26:09.915Z,3.50
2018-09-26T07:28:38.769Z,2.87
2018-09-26T07:31:07.373Z,3.07
2018-09-26T07:33:36.087Z,2.90
2018-09-26T07:36:04.734Z,2.80
2018-09-26T07:38:33.597Z,2.43
2018-09-26T07:41:02.215Z,2.67
2018-09-26T07:43:30.921Z,4.53
2018-09-26T07:45:59.758Z,2.87
2018-09-26T07:48:28.709Z,3.40
2018-09-26T07:50:57.474Z,3.10
2018-09-26T07:53:26.376Z,2.80
2018-09-26T07:55:55.142Z,2.70
2018-09-26T07:58:24.076Z,3.67
2018-09-26T08:00:52.976Z,3.00
2018-09-26T08:03:21.711Z,3.10
2018-09-26T08:05:51.074Z,3.60
2018-09-26T08:08:20.069Z,2.60
2018-09-26T08:10:48.808Z,3.63
2018-09-26T08:13:17.512Z,3.30
2018-09-26T08:15:46.180Z,3.40
2018-09-26T08:18:15.038Z,3.37
2018-09-26T08:20:43.685Z,3.10
2018-09-26T08:23:12.563Z,2.90
2018-09-26T08:25:41.454Z,3.00
2018-09-26T08:28:10.117Z,3.30
2018-09-26T08:30:39.041Z,2.73
2018-09-26T08:33:07.796Z,3.10
2018-09-26T08:35:36.494Z,3.30
2018-09-26T08:38:05.536Z,3.33
2018-09-26T08:40:34.490Z,3.43
2018-09-26T08:43:04.123Z,3.53
2018-09-26T08:45:34.016Z,4.43
2018-09-26T08:48:03.079Z,3.93
2018-09-26T08:50:31.877Z,3.90
2018-09-26T08:53:00.771Z,4.00
2018-09-26T08:55:29.430Z,3.80
2018-09-26T08:57:58.217Z,3.30
2018-09-26T09:00:35.189Z,3.70
2018-09-26T09:03:05.117Z,4.27
2018-09-26T09:05:34.181Z,3.60
2018-09-26T09:08:03.006Z,3.20
2018-09-26T09:10:31.896Z,3.60
2018-09-26T09:13:00.966Z,3.13
2018-09-26T09:15:30.168Z,3.13
2018-09-26T09:17:59.031Z,2.97
2018-09-26T09:20:27.774Z,3.37
2018-09-26T09:22:56.560Z,3.50
2018-09-26T09:25:25.338Z,3.50
2018-09-26T09:27:54.345Z,3.27
2018-09-26T09:30:23.398Z,3.87
2018-09-26T09:32:52.388Z,3.73
2018-09-26T09:35:21.461Z,4.60
2018-09-26T09:37:50.573Z,3.23
2018-09-26T09:40:20.184Z,3.63
2018-09-26T09:42:48.846Z,3.73
2018-09-26T09:45:17.869Z,3.90
2018-09-26T09:47:46.648Z,3.50
2018-09-26T09:50:15.487Z,3.33
2018-09-26T09:52:44.305Z,3.10
2018-09-26T09:55:13.071Z,3.27
2018-09-26T09:57:42.345Z,3.50
2018-09-26T10:00:11.094Z,3.17
2018-09-26T10:02:39.900Z,4.67
2018-09-26T10:05:08.811Z,3.17
2018-09-26T10:07:37.889Z,3.90
2018-09-26T10:10:06.901Z,3.33
2018-09-26T10:12:36.675Z,3.40
2018-09-26T10:15:05.481Z,3.60
2018-09-26T10:17:34.300Z,3.73
2018-09-26T10:20:03.758Z,3.00
2018-09-26T10:22:32.523Z,3.40
2018-09-26T10:25:01.219Z,3.53
2018-09-26T10:27:29.878Z,3.50
2018-09-26T10:29:58.577Z,3.80
2018-09-26T10:32:27.281Z,4.00
2018-09-26T10:34:56.061Z,3.43
2018-09-26T10:37:24.834Z,4.60
2018-09-26T10:39:53.529Z,4.60
2018-09-26T10:42:22.245Z,3.87
2018-09-26T10:44:51.713Z,3.50
2018-09-26T10:47:20.428Z,4.00
2018-09-26T10:49:49.287Z,4.60
2018-09-26T10:52:17.985Z,3.90
2018-09-26T10:54:46.875Z,3.73
2018-09-26T10:57:16.739Z,4.40
2018-09-26T10:59:45.674Z,5.13
2018-09-26T11:02:14.984Z,3.97
2018-09-26T11:04:43.689Z,4.70
2018-09-26T11:07:12.672Z,4.73
2018-09-26T11:09:42.358Z,4.07
2018-09-26T11:12:11.237Z,4.53
2018-09-26T11:14:39.999Z,4.50
2018-09-26T11:17:08.743Z,4.47
2018-09-26T11:19:37.411Z,4.50
2018-09-26T11:22:06.452Z,5.00
2018-09-26T11:24:35.110Z,4.60
2018-09-26T11:27:04.536Z,4.77
2018-09-26T11:29:33.235Z,4.53
2018-09-26T11:32:02.124Z,4.80
2018-09-26T11:34:30.880Z,4.20
2018-09-26T11:36:59.677Z,4.27
2018-09-26T11:39:28.593Z,4.93
2018-09-26T11:41:57.412Z,4.50
2018-09-26T11:44:26.626Z,4.43
2018-09-26T11:46:55.316Z,4.63
2018-09-26T11:49:24.104Z,4.00
2018-09-26T11:51:54.121Z,4.07
2018-09-26T11:54:22.869Z,4.07
2018-09-26T11:56:51.628Z,4.07
2018-09-26T11:59:20.345Z,4.57
2018-09-26T12:01:48.973Z,5.13
2018-09-26T12:04:17.757Z,4.10
2018-09-26T12:06:46.463Z,4.00
2018-09-26T12:09:15.454Z,3.70
2018-09-26T12:11:44.306Z,3.83
2018-09-26T12:14:13.788Z,4.10
2018-09-26T12:16:42.816Z,4.50
2018-09-26T12:19:11.932Z,3.58
2018-09-26T12:21:40.848Z,4.97
2018-09-26T12:24:09.537Z,4.40
2018-09-26T12:26:38.405Z,4.23
2018-09-26T12:29:07.444Z,4.23
2018-09-26T12:31:36.320Z,4.27
2018-09-26T12:34:05.082Z,3.37
2018-09-26T12:36:33.888Z,3.33
2018-09-26T12:39:02.728Z,4.10
2018-09-26T12:41:31.538Z,3.60
2018-09-26T12:44:00.296Z,3.87
2018-09-26T12:46:28.960Z,4.47
2018-09-26T12:48:57.852Z,3.50
2018-09-26T12:51:26.668Z,3.97
2018-09-26T12:53:55.646Z,4.03
2018-09-26T12:56:24.497Z,4.03
2018-09-26T12:58:53.332Z,4.03
2018-09-26T13:01:22.157Z,3.70
2018-09-26T13:03:50.943Z,3.97
2018-09-26T13:06:19.859Z,3.63
2018-09-26T13:08:48.569Z,4.10
2018-09-26T13:11:17.263Z,3.80
2018-09-26T13:13:46.003Z,3.50
2018-09-26T13:16:15.859Z,3.20
2018-09-26T13:22:03.319Z,5.10
2018-09-26T13:24:32.147Z,2.93
2018-09-26T13:27:00.826Z,3.23
2018-09-26T13:29:29.520Z,3.03
2018-09-26T13:31:58.218Z,3.87
2018-09-26T13:34:27.204Z,3.17
2018-09-26T13:36:56.005Z,2.87
2018-09-26T13:39:24.776Z,2.80
2018-09-26T13:41:53.739Z,2.83
2018-09-26T13:44:22.858Z,2.87
2018-09-26T13:46:52.194Z,2.90
2018-09-26T13:49:21.102Z,2.80
2018-09-26T13:51:49.881Z,2.93
2018-09-26T13:54:18.572Z,3.00
2018-09-26T13:56:47.495Z,3.30
2018-09-26T13:59:16.112Z,3.15
2018-09-26T14:01:45.004Z,3.03
2018-09-26T14:04:13.689Z,3.27
2018-09-26T14:06:42.300Z,3.10
2018-09-26T14:09:11.170Z,2.60
2018-09-26T14:11:40.048Z,3.00
2018-09-26T14:14:09.464Z,2.93
2018-09-26T14:16:39.623Z,3.27
2018-09-26T14:19:34.621Z,2.73
2018-09-26T14:22:07.793Z,2.70
2018-09-26T14:24:36.948Z,2.90
2018-09-26T14:27:08.881Z,2.33
2018-09-26T14:29:38.426Z,2.80
2018-09-26T14:32:07.560Z,2.77
2018-09-26T14:34:36.539Z,2.70
2018-09-26T14:37:06.039Z,2.87
2018-09-26T14:39:35.193Z,3.17
2018-09-26T14:42:04.973Z,3.03
2018-09-26T14:44:33.967Z,2.93
2018-09-26T14:47:03.172Z,2.60
2018-09-26T14:49:32.073Z,3.00
2018-09-26T14:52:01.820Z,2.30
2018-09-26T14:54:30.967Z,3.23
2018-09-26T14:57:00.169Z,2.43
2018-09-26T14:59:29.323Z,2.73
2018-09-26T15:01:58.108Z,2.53
2018-09-26T15:04:26.976Z,3.00
2018-09-26T15:06:55.754Z,3.02
2018-09-26T15:09:24.618Z,3.17
2018-09-26T15:11:53.338Z,2.77
2018-09-26T15:14:22.141Z,2.97
2018-09-26T15:16:50.712Z,3.00
2018-09-26T15:19:19.319Z,2.80
2018-09-26T15:21:47.966Z,2.83
2018-09-26T15:24:16.651Z,2.80
2018-09-26T15:26:45.302Z,2.40
2018-09-26T15:29:13.933Z,2.70
2018-09-26T15:31:42.705Z,3.13
2018-09-26T15:34:11.493Z,2.57
2018-09-26T15:36:40.256Z,2.70
2018-09-26T15:39:09.950Z,3.27
2018-09-26T15:41:39.061Z,2.50
2018-09-26T15:44:07.829Z,3.47
2018-09-26T15:46:36.741Z,2.80
2018-09-26T15:49:05.834Z,2.23
2018-09-26T15:51:34.640Z,2.43
2018-09-26T15:54:03.659Z,2.10
2018-09-26T15:56:32.442Z,2.67
2018-09-26T15:59:01.570Z,2.67
2018-09-26T16:01:30.519Z,2.63
2018-09-26T16:03:59.467Z,2.53
2018-09-26T16:06:28.253Z,1.90
2018-09-26T16:08:56.928Z,2.90
2018-09-26T16:11:26.210Z,3.23
2018-09-26T16:13:55.198Z,2.23
2018-09-26T16:16:24.054Z,2.57
2018-09-26T16:18:52.670Z,2.17
2018-09-26T16:21:21.459Z,2.23
2018-09-26T16:23:50.290Z,2.33
2018-09-26T16:26:19.483Z,1.90
2018-09-26T16:28:48.316Z,2.47
2018-09-26T16:31:17.124Z,2.13
2018-09-26T16:33:45.922Z,1.90
2018-09-26T16:36:15.208Z,2.60
2018-09-26T16:38:43.798Z,1.90
2018-09-26T16:41:12.464Z,2.27
2018-09-26T16:43:41.259Z,1.90
2018-09-26T16:46:10.135Z,3.37
2018-09-26T16:48:38.772Z,2.13
2018-09-26T16:51:07.648Z,3.07
2018-09-26T16:53:37.979Z,2.83
2018-09-26T16:56:07.074Z,3.13
2018-09-26T16:58:35.978Z,2.30
2018-09-26T17:01:04.836Z,2.40
2018-09-26T17:03:33.623Z,2.33
2018-09-26T17:06:02.419Z,2.77
2018-09-26T17:08:31.968Z,2.50
2018-09-26T17:11:00.872Z,3.33
2018-09-26T17:13:29.722Z,2.67
2018-09-26T17:15:58.778Z,1.90
2018-09-26T17:18:28.196Z,2.07
2018-09-26T17:20:57.474Z,2.53
2018-09-26T17:23:26.947Z,1.87
2018-09-26T17:25:56.757Z,2.70
2018-09-26T17:28:26.459Z,2.63
2018-09-26T17:30:55.614Z,2.70
2018-09-26T17:33:24.744Z,3.60
2018-09-26T17:35:53.799Z,1.90
2018-09-26T17:38:23.420Z,2.30
2018-09-26T17:40:52.316Z,2.20
2018-09-26T17:43:26.696Z,2.70
2018-09-26T17:45:55.482Z,2.20
2018-09-26T17:48:24.253Z,1.93
2018-09-26T17:50:52.965Z,1.83
2018-09-26T17:53:22.025Z,2.30
2018-09-26T17:55:50.715Z,1.90
2018-09-26T17:58:19.521Z,2.40
2018-09-26T18:00:48.717Z,1.80
2018-09-26T18:03:17.824Z,3.07
2018-09-26T18:05:47.024Z,3.03
2018-09-26T18:08:16.282Z,2.33
2018-09-26T18:10:45.003Z,1.63
2018-09-26T18:13:13.723Z,2.70
2018-09-26T18:15:42.338Z,2.20
2018-09-26T18:18:11.046Z,2.73
2018-09-26T18:20:39.699Z,2.40
2018-09-26T18:23:08.357Z,2.47
2018-09-26T18:25:37.244Z,3.40
2018-09-26T18:28:06.066Z,2.40
2018-09-26T18:30:34.990Z,2.20
2018-09-26T18:33:04.555Z,4.05
2018-09-26T18:35:33.686Z,2.47
2018-09-26T18:38:02.660Z,2.60
2018-09-26T18:40:31.565Z,2.37
2018-09-26T18:43:00.287Z,2.23
2018-09-26T18:45:29.074Z,2.10
2018-09-26T18:47:57.820Z,2.50
2018-09-26T18:50:26.468Z,2.07
2018-09-26T18:52:55.130Z,4.23
2018-09-26T18:55:23.815Z,3.27
2018-09-26T18:57:52.548Z,3.87
2018-09-26T19:00:21.217Z,1.97
2018-09-26T19:02:49.836Z,2.37
2018-09-26T19:05:18.495Z,2.20
2018-09-26T19:07:47.620Z,2.97
2018-09-26T19:10:16.315Z,2.37
2018-09-26T19:12:45.004Z,2.00
2018-09-26T19:15:13.721Z,2.40
2018-09-26T19:17:42.534Z,1.80
2018-09-26T19:20:11.204Z,2.80
2018-09-26T19:22:39.856Z,2.03
2018-09-26T19:25:08.642Z,3.13
2018-09-26T19:27:37.654Z,2.40
2018-09-26T19:30:06.319Z,2.70
2018-09-26T19:32:35.293Z,2.80
2018-09-26T19:35:04.580Z,2.90
2018-09-26T19:37:33.230Z,2.50
2018-09-26T19:40:02.139Z,2.10
2018-09-26T19:42:31.176Z,2.67
2018-09-26T19:44:59.976Z,2.53
2018-09-26T19:47:28.735Z,3.03
2018-09-26T19:49:57.450Z,2.57
2018-09-26T19:52:26.162Z,1.97
2018-09-26T19:54:54.829Z,1.90
2018-09-26T19:57:23.492Z,2.40
2018-09-26T19:59:52.143Z,1.73
2018-09-26T20:02:20.823Z,2.80
2018-09-26T20:04:49.604Z,2.43
2018-09-26T20:07:18.333Z,2.10
2018-09-26T20:09:47.000Z,2.33
2018-09-26T20:12:15.707Z,2.67
2018-09-26T20:14:44.498Z,2.17
2018-09-26T20:17:13.183Z,2.33
2018-09-26T20:19:41.967Z,2.67
2018-09-26T20:22:10.717Z,2.10
2018-09-26T20:24:39.298Z,2.00
2018-09-26T20:27:08.256Z,2.30
2018-09-26T20:29:36.977Z,2.60
2018-09-26T20:32:05.967Z,2.00
2018-09-26T20:34:34.833Z,1.95
2018-09-26T20:37:04.776Z,1.50
2018-09-26T20:39:33.416Z,1.90
2018-09-26T20:42:02.166Z,2.10
2018-09-26T20:44:30.864Z,2.97
2018-09-26T20:46:59.603Z,2.50
2018-09-26T20:49:28.296Z,1.90
2018-09-26T20:51:57.010Z,1.90
2018-09-26T20:54:25.647Z,1.97
2018-09-26T20:56:54.399Z,2.50
2018-09-26T20:59:23.108Z,1.80
2018-09-26T21:01:51.866Z,1.70
2018-09-26T21:04:20.455Z,1.60
2018-09-26T21:06:49.113Z,2.10
2018-09-26T21:09:17.749Z,1.67
2018-09-26T21:11:46.424Z,1.60
2018-09-26T21:14:15.163Z,1.77
2018-09-26T21:16:43.813Z,1.90
2018-09-26T21:19:12.503Z,1.87
2018-09-26T21:21:41.195Z,2.23
2018-09-26T21:24:09.876Z,1.70
2018-09-26T21:26:38.647Z,2.00
2018-09-26T21:29:07.290Z,1.80
2018-09-26T21:31:35.919Z,2.63
2018-09-26T21:34:04.628Z,2.23
2018-09-26T21:36:33.424Z,2.03
2018-09-26T21:39:02.271Z,1.77
2018-09-26T21:41:30.888Z,2.60
2018-09-26T21:43:59.575Z,1.57
2018-09-26T21:46:28.228Z,1.93
2018-09-26T21:48:56.957Z,1.77
2018-09-26T21:51:25.662Z,1.77
2018-09-26T21:53:54.396Z,1.60
2018-09-26T21:56:23.157Z,1.60
2018-09-26T21:58:51.779Z,1.80
2018-09-26T22:01:20.432Z,1.87
2018-09-26T22:03:49.082Z,2.00
2018-09-26T22:06:17.732Z,1.50
2018-09-26T22:08:46.621Z,1.80
2018-09-26T22:11:15.377Z,1.93
2018-09-26T22:13:44.404Z,1.83
2018-09-26T22:16:13.107Z,2.20
2018-09-26T22:18:41.791Z,1.93
2018-09-26T22:21:10.464Z,1.90
2018-09-26T22:23:39.097Z,1.80
2018-09-26T22:26:07.728Z,1.90
2018-09-26T22:28:36.480Z,1.83
2018-09-26T22:31:05.304Z,2.33
2018-09-26T22:33:33.980Z,1.90
2018-09-26T22:36:02.589Z,1.70
2018-09-26T22:38:31.313Z,2.50
2018-09-26T22:41:04.307Z,2.43
2018-09-26T22:43:33.004Z,1.60
2018-09-26T22:46:01.708Z,2.00
2018-09-26T22:48:30.384Z,1.97
2018-09-26T22:50:59.040Z,2.77
2018-09-26T22:53:27.908Z,2.00
2018-09-26T22:55:56.566Z,1.77
2018-09-26T22:58:25.343Z,1.80
2018-09-26T23:00:53.997Z,1.90
2018-09-26T23:03:22.756Z,2.90
2018-09-26T23:05:51.399Z,2.27
2018-09-26T23:08:20.169Z,1.93
2018-09-26T23:10:48.887Z,2.43
2018-09-26T23:13:17.572Z,2.77
2018-09-26T23:15:46.147Z,2.30
2018-09-26T23:18:14.813Z,2.13
2018-09-26T23:20:43.503Z,2.30
2018-09-26T23:23:12.169Z,2.00
2018-09-26T23:25:40.825Z,2.20
2018-09-26T23:28:09.568Z,1.97
2018-09-26T23:30:38.463Z,3.37
2018-09-26T23:33:07.263Z,2.30
2018-09-26T23:35:35.908Z,2.60
2018-09-26T23:38:04.630Z,2.33
2018-09-26T23:40:33.298Z,2.60
2018-09-26T23:43:01.978Z,2.77
2018-09-26T23:45:30.661Z,2.97
2018-09-26T23:47:59.307Z,2.60
2018-09-26T23:50:27.988Z,3.47
2018-09-26T23:52:56.626Z,2.23
2018-09-26T23:55:25.289Z,2.20
2018-09-26T23:57:53.976Z,2.73
